Atlantic - Newfoundland: Past 24 Hour Conditions

 

Wreckhouse

07:30 AM NDT 25 October 2014
This table is a summary of hourly weather conditions for the past 24 hours.
Date / Time
(NDT)
Wind(knots) Conditions Visibility(km) Pressure(kPa) Air tempC) Relative humidity(%) Dew pointC)
25 October 2014
7:30 NNW 12 N/A N/A 99.5 10 92 8
6:30 NNW 10 gust 16 N/A N/A 99.5 10 92 9
5:30 N 10 N/A N/A 99.5 11 90 10
4:30 NNE 12 gust 22 N/A N/A 99.5 13 86 10
3:30 NNE 7 gust 16 N/A N/A 99.5 13 87 11
2:30 NNE 9 N/A N/A 99.6 13 85 10
1:30 NW 9 gust 20 N/A N/A 99.6 12 87 10
0:30 NNE 11 gust 26 N/A N/A 99.7 13 86 10
24 October 2014
23:30 NNW 16 gust 23 N/A N/A 99.7 13 85 10
22:30 NNW 11 gust 17 N/A N/A 99.8 13 88 11
21:30 NNW 14 N/A N/A 99.9 13 87 11
20:30 NNW 12 gust 17 N/A N/A 99.9 13 88 11
19:30 N 19 gust 26 N/A N/A 100.0 13 91 11
18:30 ENE 12 gust 27 N/A N/A 100.1 14 88 12
17:30 ENE 12 gust 26 N/A N/A 100.2 14 88 12
16:30 E 20 gust 33 N/A N/A 100.2 15 89 13
15:30 E 32 gust 39 N/A N/A 100.2 14 87 12
14:30 E 23 gust 40 N/A N/A 100.3 14 87 12
13:30 E 17 gust 33 N/A N/A 100.4 14 88 12
12:30 W 8 gust 17 N/A N/A 100.7 13 88 11
11:30 E 38 gust 47 N/A N/A 100.5 14 82 11
10:30 ENE 29 gust 45 N/A N/A 100.7 14 83 11
9:30 ENE 11 gust 34 N/A N/A 100.9 14 84 12
8:30 ENE 22 gust 34 N/A N/A 101.0 14 82 11
7:30 ENE 4 gust 24 N/A N/A 101.1 15 75 11
 
Map of Atlantic - Newfoundland marine weather areas Southwestern Grand Banks - 44138 Banquereau - 44139 Tail of the Bank - 44140 Nickerson Bank - 44251 Northeast Burgeo Bank - 44255 Blanc-Sablon Airport Cap Whittle Chevery Natashquan Airport Heath Point Miscou Island Grand Étang Ingonish Beach North Mountain St.Paul Island J.A. Douglas McCurdy Sydney Airport Charlottetown Airport East Point North Cape Argentia Bonavista Burgeo Cape Race Corner Brook Daniel's Harbour Englee Ferolle Point La Scie Port aux Basques Rocky Harbour Sagona Island St. Anthony Airport St. John's Int'l Airport St. Lawrence Stephenville Airport Twillingate Winterland Wreckhouse Cartwright Airport Mary's Harbour Grates Cove Pool's Island Marticot Island Long Pond Îles de la Madeleine Airport
Legend: buoyBuoy land stationLand Station